createdAt,value
2023-01-27T04:40:30.871Z,0.20
2023-01-27T04:51:06.405Z,0.20
2023-01-27T05:01:42.145Z,0.10
2023-01-27T05:12:17.887Z,0.30
2023-01-27T05:23:13.302Z,0.50
2023-01-27T05:33:51.106Z,0.70
2023-01-27T05:44:26.825Z,0.80
2023-01-27T05:55:02.145Z,0.80
2023-01-27T06:05:17.530Z,0.80
2023-01-27T06:15:33.389Z,0.80
2023-01-27T06:25:49.391Z,0.70
2023-01-27T06:36:12.015Z,0.70
2023-01-27T06:46:27.774Z,0.70
2023-01-27T06:56:43.371Z,0.60
2023-01-27T07:06:58.755Z,0.70
2023-01-27T07:17:14.650Z,0.80
2023-01-27T07:27:30.456Z,0.70
2023-01-27T07:37:46.390Z,0.80
2023-01-27T07:48:07.621Z,1.40
2023-01-27T07:58:23.358Z,1.80
2023-01-27T08:08:38.744Z,1.50
2023-01-27T08:18:54.643Z,1.60
2023-01-27T08:29:10.296Z,1.90
2023-01-27T08:39:25.758Z,1.90
2023-01-27T08:49:41.488Z,1.90
2023-01-27T08:59:56.806Z,1.70
2023-01-27T09:10:14.903Z,1.70
2023-01-27T09:20:31.887Z,2.00
2023-01-27T09:30:47.518Z,1.90
2023-01-27T09:41:22.430Z,1.90
2023-01-27T09:52:09.938Z,2.00
2023-01-27T10:02:37.643Z,2.20
2023-01-27T10:13:17.907Z,2.40
2023-01-27T10:23:58.035Z,2.50
2023-01-27T10:34:49.157Z,2.90
2023-01-27T10:45:28.730Z,3.10
2023-01-27T10:55:56.299Z,3.30
2023-01-27T11:06:19.196Z,3.40
2023-01-27T11:16:38.831Z,3.70
2023-01-27T11:27:25.304Z,3.80
2023-01-27T11:37:43.780Z,4.00
2023-01-27T11:48:00.941Z,3.60
2023-01-27T11:58:26.009Z,3.50
2023-01-27T12:08:45.078Z,3.50
2023-01-27T12:19:14.531Z,3.60
2023-01-27T12:29:42.951Z,3.90
2023-01-27T12:40:02.767Z,4.30
2023-01-27T12:50:33.614Z,4.80
2023-01-27T13:00:48.848Z,4.40
2023-01-27T13:11:04.897Z,4.30
2023-01-27T13:21:25.174Z,4.50
2023-01-27T13:32:04.542Z,4.70
2023-01-27T13:42:26.300Z,4.70
2023-01-27T13:52:41.829Z,4.30
2023-01-27T14:03:27.705Z,4.10
2023-01-27T14:14:07.691Z,4.10
2023-01-27T14:24:36.358Z,4.10
2023-01-27T14:35:07.665Z,4.00
2023-01-27T14:45:35.664Z,4.10
2023-01-27T14:56:05.696Z,4.00
2023-01-27T15:06:57.020Z,3.90
2023-01-27T15:17:31.298Z,4.00
2023-01-27T15:27:48.402Z,3.90
2023-01-27T15:38:08.180Z,3.90
2023-01-27T15:48:34.268Z,3.90
2023-01-27T15:58:57.639Z,3.90
2023-01-27T16:09:22.455Z,3.80
2023-01-27T16:20:15.344Z,3.80
2023-01-27T16:31:25.885Z,3.80
2023-01-27T16:41:53.597Z,3.70
2023-01-27T16:52:35.925Z,3.70
2023-01-27T17:02:59.879Z,3.70
2023-01-27T17:13:27.589Z,3.70
2023-01-27T17:23:43.597Z,3.80
2023-01-27T17:34:01.482Z,3.70
2023-01-27T17:44:18.209Z,3.70
2023-01-27T17:54:35.198Z,3.70
2023-01-27T18:04:52.176Z,3.70
2023-01-27T18:15:39.850Z,3.70
2023-01-27T18:26:23.549Z,3.70
2023-01-27T18:36:56.101Z,3.60
2023-01-27T18:47:17.911Z,3.60
2023-01-27T18:57:33.343Z,3.70
2023-01-27T19:07:50.213Z,3.60
2023-01-27T19:18:35.240Z,3.60
2023-01-27T19:28:54.177Z,3.70
2023-01-27T19:39:22.041Z,3.70
2023-01-27T19:49:37.540Z,3.60
2023-01-27T19:59:52.880Z,3.50
2023-01-27T20:10:20.889Z,3.40
2023-01-27T20:20:35.885Z,3.30
2023-01-27T20:30:51.811Z,3.30
2023-01-27T20:41:07.969Z,3.30
2023-01-27T20:51:23.789Z,3.30
2023-01-27T21:01:39.209Z,3.30
2023-01-27T21:11:55.119Z,3.40
2023-01-27T21:22:10.495Z,3.40
2023-01-27T21:32:26.267Z,3.40
2023-01-27T21:42:59.968Z,3.30
2023-01-27T21:53:15.415Z,3.20
2023-01-27T22:03:31.251Z,3.20
2023-01-27T22:13:46.726Z,3.20
2023-01-27T22:24:02.158Z,3.20
